This is the latest recevied weather packets stored in our database for station/object Kisslegg. If no packets are shown the sender has not sent any weather packets the latest 10 day(s).
| Time | Temp. | Humidity | Pressure | Rain* | Wind** | Luminosity | Snow |
|---|---|---|---|---|---|---|---|
| 1788154330 | 15.56° C | 96% | 1015.4 hPa | 0.25 mm | - | - | - |
| 1788152530 | 15° C | 95% | 1015.3 hPa | 0.25 mm | - | - | - |
| 1788150730 | 15.56° C | 95% | 1015.2 hPa | 0.25 mm | - | - | - |
| 1788148929 | 15.56° C | 95% | 1015.5 hPa | 0.25 mm | - | - | - |
| 1788147129 | 15.56° C | 94% | 1015.3 hPa | 0 mm | - | - | - |
| 1788145329 | 15.56° C | 94% | 1015.2 hPa | 0 mm | - | - | - |
| 1788143529 | 16.11° C | 92% | 1015.3 hPa | 0 mm | - | - | - |
| 1788141729 | 16.11° C | 90% | 1014.9 hPa | 0 mm | - | - | - |
| 1788139931 | 17.78° C | 85% | 1016.3 hPa | 0 mm | - | - | - |
| 1788138129 | 17.78° C | 85% | 1012.8 hPa | 0 mm | - | - | - |
| 1788136332 | 17.78° C | 82% | 1012.7 hPa | 0 mm | - | - | - |
| 1788134532 | 18.33° C | 82% | 1012.7 hPa | 0 mm | - | - | - |
| 1788132731 | 18.33° C | 81% | 1013 hPa | 0 mm | - | - | - |
| 1788130931 | 18.89° C | 81% | 1013 hPa | 0 mm | - | - | - |
| 1788129131 | 18.89° C | 81% | 1013.2 hPa | 0 mm | - | - | - |
| 1788127331 | 19.44° C | 79% | 1013.4 hPa | 0 mm | - | - | - |
| 1788125531 | 19.44° C | 80% | 1013.5 hPa | 0.51 mm | - | - | - |
| 1788123730 | 19.44° C | 79% | 1013.8 hPa | 0.51 mm | - | - | - |
| 1788121931 | 19.44° C | 79% | 1013.9 hPa | 0.51 mm | - | - | - |
| 1788120131 | 20° C | 77% | 1014 hPa | 0.51 mm | - | - | - |
| 1788118330 | 20.56° C | 75% | 1013.9 hPa | 0.51 mm | - | - | - |
| 1788116530 | 21.11° C | 73% | 1014.1 hPa | 0.51 mm | - | - | - |
| 1788114730 | 21.67° C | 70% | 1013.9 hPa | 0.51 mm | - | - | - |
| 1788112931 | 22.78° C | 69% | 1013.7 hPa | 0.51 mm | - | - | - |
| 1788111130 | 22.78° C | 69% | 1013.7 hPa | 0.51 mm | - | - | - |
* Rain since midnight (hover to see other rain measurements)
** Current wind speed in m/s (hover to see current wind gust speed)